Huvudsida
METAR-TAF:

METAR-TAF

Flygplatser :

Adolfo Suárez Madrid-Barajas flygplats

Madrid, Spanien

latitud: 40-27N, longitud: 003-33W, höjd: 609 m

Aktuellt väderrapport

Denna rapport gjordes för 35 minuter sedan, klockan 21:00 UTC
Vind 3 kt från nord/nordväst
Temperatur 25°C
Fuktighet 32%
Tryck 1020 hPa
Sikt 10 km eller mer
Inga moln under 1 500 m eller inga cumulonimbus

METAR: LEMD 192100Z 34003KT CAVOK 25/07 Q1020 NOSIG

Tid: 23:35 (21:35 UTC)

Väderprognos

Denna rapport gjordes för 4 timmar och 35 minuter sedan, klockan 17:00 UTC
Prognos gäller från 19 kl. 18 UTC till 20 kl. 24 UTC
Vind 5 kt varierande vindriktning
Sikt 10 km eller mer
Få moln på en höjd av 5000 ft
Sannolikhet 30% :
Temporärt
från 20 kl. 00 UTC till 20 kl. 06 UTC
Vind 10 kt från nordost

TAF: LEMD 191700Z 1918/2024 VRB05KT 9999 FEW050 TX34/2016Z TN18/2006Z PROB30 TEMPO 2000/2006 04010KT

Aktuella väderrapporter och prognoser från 4000 flygplatser (METAR- och TAF-rapporter).

De tillgängliga stationerna syns som gula och röda prickar på kartan.

För musen över prickarna för att se namnen på stationerna.

Klicka sedan för att få väderrapporter och prognoser.

För att ändra kartan: Klicka på de gröna knapparna med ett svart kors på för att zooma in; den gröna knappen med ett streck på för att zooma ut; eller på de gröna pilarna för angränsande kartor.


METAR-TAF: